createdAt,value
2019-01-10T00:02:11.995Z,68.73
2019-01-10T00:04:50.187Z,68.80
2019-01-10T00:07:28.598Z,71.30
2019-01-10T00:10:08.146Z,70.63
2019-01-10T00:12:47.411Z,82.30
2019-01-10T00:15:40.322Z,216.13
2019-01-10T00:18:22.356Z,155.00
2019-01-10T00:21:00.376Z,79.83
2019-01-10T00:23:38.119Z,69.47
2019-01-10T00:26:17.328Z,69.17
2019-01-10T00:28:56.330Z,66.63
2019-01-10T00:34:30.622Z,67.70
2019-01-10T00:37:08.689Z,71.27
2019-01-10T00:39:47.389Z,71.40
2019-01-10T00:42:26.138Z,69.10
2019-01-10T00:45:05.922Z,73.23
2019-01-10T00:47:45.172Z,74.03
2019-01-10T00:50:25.691Z,72.77
2019-01-10T00:53:03.933Z,73.03
2019-01-10T00:55:41.726Z,74.93
2019-01-10T00:58:20.049Z,69.80
2019-01-10T01:00:58.295Z,68.87
2019-01-10T01:03:37.157Z,67.43
2019-01-10T01:06:15.787Z,69.80
2019-01-10T01:08:54.074Z,67.40
2019-01-10T01:11:32.818Z,68.83
2019-01-10T01:14:10.976Z,70.40
2019-01-10T01:16:49.314Z,71.23
2019-01-10T01:19:28.588Z,66.27
2019-01-10T01:22:07.051Z,69.57
2019-01-10T01:24:49.709Z,71.80
2019-01-10T01:27:28.204Z,68.43
2019-01-10T01:30:06.400Z,66.03
2019-01-10T01:32:45.086Z,66.37
2019-01-10T01:35:23.005Z,72.27
2019-01-10T01:38:02.138Z,72.10
2019-01-10T01:40:40.054Z,70.87
2019-01-10T01:43:18.521Z,67.50
2019-01-10T01:48:58.869Z,70.97
2019-01-10T01:51:36.730Z,67.43
2019-01-10T01:54:14.361Z,68.30
2019-01-10T01:56:52.810Z,71.53
2019-01-10T01:59:31.075Z,71.13
2019-01-10T02:02:09.404Z,69.97
2019-01-10T02:04:47.924Z,69.50
2019-01-10T02:13:27.394Z,71.80
2019-01-10T02:16:05.662Z,74.47
2019-01-10T02:18:43.880Z,77.57
2019-01-10T02:21:22.094Z,74.70
2019-01-10T02:26:57.701Z,67.80
2019-01-10T02:29:37.306Z,68.50
2019-01-10T02:32:17.336Z,70.00
2019-01-10T02:35:09.981Z,71.13
2019-01-10T02:37:47.955Z,72.10
2019-01-10T02:40:26.816Z,66.93
2019-01-10T02:43:04.882Z,67.50
2019-01-10T02:45:44.502Z,72.47
2019-01-10T02:48:23.106Z,67.30
2019-01-10T02:51:04.155Z,70.50
2019-01-10T02:53:42.809Z,72.27
2019-01-10T02:56:21.126Z,72.37
2019-01-10T02:58:59.155Z,71.13
2019-01-10T03:01:37.943Z,73.43
2019-01-10T03:07:17.165Z,68.50
2019-01-10T03:09:56.051Z,70.40
2019-01-10T03:12:34.842Z,74.30
2019-01-10T03:15:15.944Z,72.13
2019-01-10T03:20:56.628Z,73.93
2019-01-10T03:23:35.726Z,72.10
2019-01-10T03:26:14.612Z,67.93
2019-01-10T03:28:52.521Z,70.33
2019-01-10T03:31:31.452Z,69.17
2019-01-10T03:34:09.261Z,67.40
2019-01-10T03:36:47.648Z,72.83
2019-01-10T03:39:27.290Z,68.83
2019-01-10T03:42:05.986Z,70.67
2019-01-10T03:44:54.796Z,67.77
2019-01-10T03:47:32.740Z,77.90
2019-01-10T03:50:11.210Z,99.03
2019-01-10T03:52:49.719Z,83.37
2019-01-10T03:55:30.614Z,66.60
2019-01-10T03:58:09.306Z,74.97
2019-01-10T04:00:48.046Z,73.43
2019-01-10T04:03:26.609Z,66.40
2019-01-10T04:09:00.318Z,81.63
2019-01-10T04:14:38.266Z,63.57
2019-01-10T04:17:17.025Z,109.47
2019-01-10T04:19:55.499Z,62.03
2019-01-10T04:22:35.770Z,64.07
2019-01-10T04:25:15.738Z,65.37
2019-01-10T04:27:54.518Z,70.00
2019-01-10T04:33:32.353Z,62.53
2019-01-10T04:36:10.785Z,61.63
2019-01-10T04:38:52.364Z,58.73
2019-01-10T04:41:30.103Z,56.77
2019-01-10T04:44:10.651Z,56.83
2019-01-10T04:46:54.402Z,60.47
2019-01-10T04:49:34.197Z,76.03
2019-01-10T04:52:13.312Z,68.50
2019-01-10T04:54:56.053Z,64.83
2019-01-10T05:00:45.302Z,67.77
2019-01-10T05:03:25.621Z,73.07
2019-01-10T05:06:04.990Z,88.00
2019-01-10T05:08:47.026Z,59.30
2019-01-10T05:11:25.801Z,57.70
2019-01-10T05:14:16.202Z,84.27
2019-01-10T05:16:49.636Z,68.20
2019-01-10T05:19:28.402Z,69.13
2019-01-10T05:22:08.615Z,74.03
2019-01-10T05:30:27.065Z,58.90
2019-01-10T05:36:20.288Z,57.03
2019-01-10T05:38:59.589Z,55.57
2019-01-10T05:41:48.524Z,58.27
2019-01-10T05:44:28.162Z,76.13
2019-01-10T05:47:09.666Z,54.67
2019-01-10T05:49:54.363Z,61.23
2019-01-10T05:52:35.594Z,62.47
2019-01-10T05:55:20.644Z,61.37
2019-01-10T05:57:58.955Z,55.07
2019-01-10T06:00:40.910Z,48.60
2019-01-10T06:03:20.209Z,46.87
2019-01-10T06:05:59.892Z,49.90
2019-01-10T06:08:41.606Z,47.07
2019-01-10T06:11:24.086Z,45.50
2019-01-10T06:17:33.824Z,42.70
2019-01-10T06:20:58.966Z,45.47
2019-01-10T06:23:41.619Z,43.20
2019-01-10T06:26:21.679Z,41.17
2019-01-10T06:29:02.207Z,38.97
2019-01-10T06:31:53.463Z,40.83
2019-01-10T06:34:35.458Z,38.60
2019-01-10T06:37:15.973Z,42.63
2019-01-10T06:39:56.987Z,40.83
2019-01-10T06:42:35.782Z,42.37
2019-01-10T06:45:17.584Z,47.67
2019-01-10T06:53:52.190Z,51.37
2019-01-10T06:56:32.984Z,44.90
2019-01-10T06:59:12.581Z,44.07
2019-01-10T07:01:50.732Z,41.13
2019-01-10T07:07:27.849Z,38.93
2019-01-10T07:10:13.132Z,42.33
2019-01-10T07:12:58.399Z,40.50
2019-01-10T07:15:40.295Z,41.10
2019-01-10T07:18:24.081Z,37.97
2019-01-10T07:21:07.276Z,38.33
2019-01-10T07:23:54.323Z,39.23
2019-01-10T07:26:33.769Z,39.17
2019-01-10T07:29:15.863Z,36.47
2019-01-10T07:32:02.803Z,34.93
2019-01-10T07:34:41.210Z,47.67
2019-01-10T07:37:20.537Z,46.23
2019-01-10T07:40:01.806Z,36.37
2019-01-10T07:42:49.356Z,37.53
2019-01-10T07:45:36.531Z,37.27
2019-01-10T07:48:18.107Z,38.00
2019-01-10T07:50:57.701Z,40.60
2019-01-10T07:53:37.179Z,37.63
2019-01-10T07:56:19.578Z,36.93
2019-01-10T07:59:01.724Z,36.10
2019-01-10T08:01:44.127Z,36.43
2019-01-10T08:04:22.431Z,36.07
2019-01-10T08:07:11.923Z,36.50
2019-01-10T08:09:51.001Z,41.07
2019-01-10T08:12:29.012Z,34.80
2019-01-10T08:15:12.605Z,34.77
2019-01-10T08:17:56.131Z,33.03
2019-01-10T08:20:36.801Z,31.23
2019-01-10T08:23:14.999Z,32.70
2019-01-10T08:25:55.445Z,30.83
2019-01-10T08:28:36.932Z,31.90
2019-01-10T08:31:23.855Z,34.30
2019-01-10T08:34:02.405Z,34.73
2019-01-10T08:36:48.788Z,33.20
2019-01-10T08:39:30.855Z,31.53
2019-01-10T08:42:12.547Z,31.03
2019-01-10T08:44:50.941Z,31.80
2019-01-10T08:47:28.839Z,28.77
2019-01-10T08:50:08.582Z,31.87
2019-01-10T08:52:54.026Z,29.67
2019-01-10T08:55:36.060Z,31.87
2019-01-10T08:58:14.648Z,31.83
2019-01-10T09:00:58.021Z,32.93
2019-01-10T09:03:38.781Z,32.60
2019-01-10T09:06:17.250Z,31.90
2019-01-10T09:08:56.843Z,31.33
2019-01-10T09:11:39.613Z,32.17
2019-01-10T09:14:24.729Z,34.03
2019-01-10T09:17:05.251Z,35.83
2019-01-10T09:19:45.123Z,45.87
2019-01-10T09:22:23.449Z,39.47
2019-01-10T09:25:02.222Z,33.83
2019-01-10T09:27:43.936Z,32.57
2019-01-10T09:33:20.861Z,30.90
2019-01-10T09:36:03.637Z,31.17
2019-01-10T09:38:43.441Z,33.80
2019-01-10T09:41:24.086Z,32.30
2019-01-10T09:44:03.301Z,32.47
2019-01-10T09:46:42.317Z,35.43
2019-01-10T09:49:20.380Z,32.47
2019-01-10T09:51:59.745Z,33.60
2019-01-10T09:54:39.271Z,32.87
2019-01-10T09:57:19.682Z,32.70
2019-01-10T09:59:57.367Z,32.47
2019-01-10T10:02:37.357Z,33.30
2019-01-10T10:05:17.511Z,31.77
2019-01-10T10:07:56.095Z,32.93
2019-01-10T10:10:35.001Z,32.83
2019-01-10T10:13:15.595Z,34.67
2019-01-10T10:15:56.867Z,37.73
2019-01-10T10:18:36.638Z,36.13
2019-01-10T10:21:16.009Z,34.80
2019-01-10T10:23:54.148Z,39.10
2019-01-10T10:26:32.529Z,41.37
2019-01-10T10:29:12.196Z,43.33
2019-01-10T10:31:51.336Z,43.63
2019-01-10T10:34:33.347Z,60.63
2019-01-10T10:37:12.922Z,50.03
2019-01-10T10:39:54.937Z,44.27
2019-01-10T10:42:33.683Z,39.27
2019-01-10T10:45:15.809Z,39.07
2019-01-10T10:47:56.467Z,43.13
2019-01-10T10:50:35.423Z,41.23
2019-01-10T10:53:14.104Z,36.70
2019-01-10T10:55:53.478Z,39.67
2019-01-10T10:58:33.007Z,43.07
2019-01-10T11:01:12.882Z,35.97
2019-01-10T11:03:52.842Z,42.00
2019-01-10T11:06:36.074Z,38.33
2019-01-10T11:09:16.995Z,37.23
2019-01-10T11:11:57.042Z,36.27
2019-01-10T11:14:38.991Z,36.93
2019-01-10T11:17:21.684Z,39.03
2019-01-10T11:20:02.076Z,38.37
2019-01-10T11:22:43.486Z,37.70
2019-01-10T11:25:26.826Z,36.40
2019-01-10T11:28:16.204Z,38.83
2019-01-10T11:30:58.287Z,35.83
2019-01-10T11:33:38.795Z,35.70
2019-01-10T11:36:25.153Z,35.73
2019-01-10T11:39:05.936Z,39.43
2019-01-10T11:41:47.311Z,42.63
2019-01-10T11:44:28.425Z,37.83
2019-01-10T11:47:08.843Z,37.30
2019-01-10T11:49:48.417Z,36.37
2019-01-10T11:52:26.730Z,37.67
2019-01-10T11:55:07.019Z,37.87
2019-01-10T11:57:50.333Z,35.93
2019-01-10T12:00:37.872Z,36.90
2019-01-10T12:03:21.863Z,40.97
2019-01-10T12:06:00.963Z,54.93
2019-01-10T12:08:46.102Z,47.40
2019-01-10T12:11:25.851Z,43.73
2019-01-10T12:14:10.361Z,40.33
2019-01-10T12:16:51.144Z,38.13
2019-01-10T12:19:30.520Z,39.07
2019-01-10T12:22:14.947Z,37.43
2019-01-10T12:24:58.486Z,37.90
2019-01-10T12:27:38.382Z,44.20
2019-01-10T12:30:26.086Z,41.33
2019-01-10T12:33:13.199Z,42.73
2019-01-10T12:35:54.423Z,45.30
2019-01-10T12:38:37.099Z,40.93
2019-01-10T12:41:16.089Z,36.90
2019-01-10T12:43:58.031Z,36.13
2019-01-10T12:46:37.602Z,36.80
2019-01-10T12:49:17.027Z,35.70
2019-01-10T12:51:59.472Z,34.83
2019-01-10T12:54:44.225Z,38.57
2019-01-10T12:57:29.879Z,41.03
2019-01-10T13:00:12.001Z,40.23
2019-01-10T13:02:56.752Z,37.33
2019-01-10T13:05:45.545Z,38.00
2019-01-10T13:08:25.757Z,36.23
2019-01-10T13:11:07.162Z,36.50
2019-01-10T13:13:51.228Z,36.50
2019-01-10T13:16:31.883Z,36.50
2019-01-10T13:19:14.178Z,36.47
2019-01-10T13:21:53.234Z,39.70
2019-01-10T13:24:39.435Z,37.50
2019-01-10T13:27:20.449Z,35.70
2019-01-10T13:30:00.922Z,36.40
2019-01-10T13:32:40.563Z,34.97
2019-01-10T13:35:19.456Z,35.17
2019-01-10T13:38:04.134Z,35.20
2019-01-10T13:40:51.540Z,35.73
2019-01-10T13:43:39.317Z,42.90
2019-01-10T13:46:25.559Z,37.50
2019-01-10T13:49:11.047Z,36.80
2019-01-10T13:51:55.946Z,34.70
2019-01-10T13:54:38.902Z,35.80
2019-01-10T13:57:28.217Z,39.23
2019-01-10T14:00:10.801Z,39.27
2019-01-10T14:02:55.116Z,38.67
2019-01-10T14:05:40.731Z,36.77
2019-01-10T14:08:28.217Z,36.53
2019-01-10T14:11:22.680Z,38.40
2019-01-10T14:14:06.303Z,35.57
2019-01-10T14:16:49.838Z,36.47
2019-01-10T14:19:34.100Z,36.57
2019-01-10T14:22:51.624Z,34.60
2019-01-10T14:25:33.017Z,36.03
2019-01-10T14:28:13.777Z,35.13
2019-01-10T14:30:59.096Z,37.63
2019-01-10T14:33:48.389Z,34.57
2019-01-10T14:36:38.840Z,36.47
2019-01-10T14:39:18.622Z,36.47
2019-01-10T14:41:58.640Z,34.70
2019-01-10T14:47:50.691Z,34.53
2019-01-10T14:50:35.060Z,36.50
2019-01-10T14:53:17.143Z,38.90
2019-01-10T14:55:57.955Z,35.83
2019-01-10T14:58:37.669Z,36.00
2019-01-10T15:01:29.132Z,35.50
2019-01-10T15:04:17.623Z,35.53
2019-01-10T15:07:06.810Z,37.60
2019-01-10T15:09:59.745Z,35.57
2019-01-10T15:13:01.474Z,37.50
2019-01-10T15:15:48.193Z,37.87
2019-01-10T15:18:37.157Z,38.00
2019-01-10T15:21:40.572Z,40.13
2019-01-10T15:24:24.762Z,150.43
2019-01-10T15:27:11.667Z,98.17
2019-01-10T15:29:53.387Z,56.20
2019-01-10T15:32:39.880Z,174.57
2019-01-10T15:35:18.933Z,56.37
2019-01-10T15:38:14.009Z,42.00
2019-01-10T15:41:02.190Z,40.10
2019-01-10T15:43:43.234Z,40.53
2019-01-10T15:46:29.463Z,41.27
2019-01-10T15:49:19.688Z,40.27
2019-01-10T15:52:06.849Z,40.20
2019-01-10T15:55:03.198Z,40.57
2019-01-10T15:58:00.615Z,40.50
2019-01-10T16:01:01.111Z,41.93
2019-01-10T16:03:43.583Z,43.00
2019-01-10T16:06:27.608Z,42.27
2019-01-10T16:09:12.636Z,44.50
2019-01-10T16:11:56.836Z,46.90
2019-01-10T16:14:41.692Z,45.43
2019-01-10T16:17:28.805Z,45.77
2019-01-10T16:20:12.554Z,46.57
2019-01-10T16:22:57.513Z,44.57
2019-01-10T16:25:40.291Z,124.60
2019-01-10T16:28:25.882Z,69.60
2019-01-10T16:31:16.195Z,50.33
2019-01-10T16:34:03.397Z,45.10
2019-01-10T16:36:46.745Z,47.97
2019-01-10T16:39:28.733Z,46.23
2019-01-10T16:42:11.004Z,46.60
2019-01-10T16:44:53.180Z,46.83
2019-01-10T16:47:36.132Z,46.27
2019-01-10T16:50:30.179Z,48.07
2019-01-10T16:53:12.599Z,48.03
2019-01-10T16:55:59.638Z,49.47
2019-01-10T16:58:40.650Z,49.83
2019-01-10T17:01:29.870Z,49.93
2019-01-10T17:04:13.162Z,50.17
2019-01-10T17:06:56.874Z,50.00
2019-01-10T17:09:36.626Z,50.13
2019-01-10T17:12:22.347Z,47.53
2019-01-10T17:15:00.170Z,49.00
2019-01-10T17:17:42.010Z,48.13
2019-01-10T17:20:25.121Z,49.47
2019-01-10T17:23:07.807Z,71.87
2019-01-10T17:25:51.689Z,103.20
2019-01-10T17:28:31.019Z,74.27
2019-01-10T17:31:14.960Z,158.83
2019-01-10T17:33:54.901Z,228.90
2019-01-10T17:36:37.305Z,60.97
2019-01-10T17:39:17.243Z,52.93
2019-01-10T17:41:55.891Z,49.07
2019-01-10T17:44:53.838Z,56.20
2019-01-10T17:47:35.462Z,61.97
2019-01-10T17:50:14.872Z,61.30
2019-01-10T17:52:56.946Z,51.93
2019-01-10T17:55:48.419Z,197.37
2019-01-10T17:58:29.011Z,111.50
2019-01-10T18:01:08.999Z,59.37
2019-01-10T18:03:48.349Z,52.60
2019-01-10T18:06:32.462Z,49.73
2019-01-10T18:09:13.720Z,50.77
2019-01-10T18:11:54.479Z,48.00
2019-01-10T18:14:37.523Z,48.90
2019-01-10T18:17:15.014Z,48.13
2019-01-10T18:19:54.005Z,48.93
2019-01-10T18:22:36.910Z,49.53
2019-01-10T18:25:15.487Z,49.00
2019-01-10T18:27:53.117Z,52.90
2019-01-10T18:30:31.459Z,51.10
2019-01-10T18:33:12.737Z,50.73
2019-01-10T18:35:51.698Z,50.00
2019-01-10T18:38:31.286Z,50.33
2019-01-10T18:41:12.317Z,50.50
2019-01-10T18:43:58.667Z,50.77
2019-01-10T18:46:39.203Z,51.67
2019-01-10T18:49:21.321Z,52.60
2019-01-10T18:52:04.851Z,53.60
2019-01-10T18:54:45.819Z,53.90
2019-01-10T18:57:24.298Z,54.73
2019-01-10T19:00:03.338Z,57.13
2019-01-10T19:02:43.580Z,56.40
2019-01-10T19:05:26.281Z,58.40
2019-01-10T19:08:04.586Z,59.70
2019-01-10T19:10:43.025Z,60.67
2019-01-10T19:13:22.606Z,65.50
2019-01-10T19:16:04.623Z,61.13
2019-01-10T19:18:43.366Z,61.57
2019-01-10T19:21:24.062Z,61.07
2019-01-10T19:24:03.002Z,63.33
2019-01-10T19:26:42.475Z,63.47
2019-01-10T19:29:21.682Z,64.80
2019-01-10T19:31:59.416Z,63.53
2019-01-10T19:34:40.608Z,64.43
2019-01-10T19:37:20.955Z,67.27
2019-01-10T19:40:02.693Z,69.13
2019-01-10T19:42:43.089Z,68.80
2019-01-10T19:45:22.163Z,64.77
2019-01-10T19:48:11.184Z,66.47
2019-01-10T19:50:51.547Z,65.80
2019-01-10T19:53:33.881Z,65.67
2019-01-10T19:56:11.591Z,67.27
2019-01-10T19:58:49.593Z,65.23
2019-01-10T20:01:29.951Z,70.83
2019-01-10T20:04:10.010Z,68.93
2019-01-10T20:06:47.910Z,66.03
2019-01-10T20:09:29.936Z,68.43
2019-01-10T20:12:08.500Z,68.00
2019-01-10T20:14:47.979Z,69.97
2019-01-10T20:17:30.051Z,68.80
2019-01-10T20:20:11.320Z,73.43
2019-01-10T20:22:48.363Z,73.00
2019-01-10T20:25:29.644Z,72.67
2019-01-10T20:28:07.460Z,73.20
2019-01-10T20:30:46.075Z,72.70
2019-01-10T20:33:25.770Z,74.57
2019-01-10T20:36:04.154Z,84.97
2019-01-10T20:38:43.968Z,80.30
2019-01-10T20:41:21.340Z,79.10
2019-01-10T20:44:01.320Z,75.07
2019-01-10T20:46:39.503Z,86.20
2019-01-10T20:49:18.663Z,87.37
2019-01-10T20:51:56.045Z,79.00
2019-01-10T20:54:35.716Z,78.17
2019-01-10T20:57:16.027Z,77.30
2019-01-10T20:59:53.320Z,76.63
2019-01-10T21:02:31.175Z,78.40
2019-01-10T21:05:10.083Z,78.97
2019-01-10T21:07:51.339Z,83.00
2019-01-10T21:10:29.896Z,75.57
2019-01-10T21:13:08.317Z,76.20
2019-01-10T21:15:46.418Z,78.23
2019-01-10T21:18:28.620Z,77.90
2019-01-10T21:21:05.383Z,76.23
2019-01-10T21:23:47.745Z,78.37
2019-01-10T21:26:26.117Z,75.27
2019-01-10T21:29:03.339Z,73.23
2019-01-10T21:31:45.089Z,79.97
2019-01-10T21:34:26.079Z,77.63
2019-01-10T21:37:04.577Z,84.87
2019-01-10T21:39:42.259Z,84.33
2019-01-10T21:42:19.998Z,79.10
2019-01-10T21:44:57.569Z,79.50
2019-01-10T21:47:35.697Z,76.53
2019-01-10T21:50:15.890Z,71.77
2019-01-10T21:52:54.923Z,74.37
2019-01-10T21:55:34.777Z,72.77
2019-01-10T21:58:14.594Z,71.30
2019-01-10T22:00:52.425Z,71.67
2019-01-10T22:03:31.024Z,70.13
2019-01-10T22:06:13.515Z,70.10
2019-01-10T22:08:53.589Z,71.40
2019-01-10T22:11:31.266Z,70.63
2019-01-10T22:14:12.088Z,68.17
2019-01-10T22:16:50.217Z,72.70
2019-01-10T22:19:27.831Z,71.70
2019-01-10T22:22:06.943Z,72.37
2019-01-10T22:24:44.419Z,73.67
2019-01-10T22:27:23.566Z,72.10
2019-01-10T22:30:03.584Z,73.17
2019-01-10T22:32:42.308Z,74.13
2019-01-10T22:35:23.668Z,71.73
2019-01-10T22:38:05.639Z,74.93
2019-01-10T22:40:44.271Z,76.53
2019-01-10T22:43:23.248Z,78.23
2019-01-10T22:46:02.313Z,80.00
2019-01-10T22:48:47.715Z,76.53
2019-01-10T22:51:20.754Z,76.20
2019-01-10T22:54:02.224Z,77.33
2019-01-10T22:56:43.243Z,81.80
2019-01-10T22:59:24.378Z,95.53
2019-01-10T23:02:03.437Z,92.97
2019-01-10T23:04:41.719Z,87.67
2019-01-10T23:07:39.151Z,82.80
2019-01-10T23:10:20.442Z,87.20
2019-01-10T23:12:59.445Z,79.70
2019-01-10T23:15:38.001Z,79.00
2019-01-10T23:18:19.946Z,76.93
2019-01-10T23:21:06.801Z,76.30
2019-01-10T23:23:47.889Z,73.50
2019-01-10T23:26:27.393Z,80.50
2019-01-10T23:29:05.830Z,80.80
2019-01-10T23:31:44.384Z,85.57
2019-01-10T23:34:27.359Z,82.43
2019-01-10T23:37:05.563Z,84.77
2019-01-10T23:39:44.158Z,80.60
2019-01-10T23:42:22.280Z,83.10
2019-01-10T23:45:03.187Z,85.10
2019-01-10T23:47:41.441Z,100.27
2019-01-10T23:50:20.405Z,90.47
2019-01-10T23:53:00.013Z,88.20
2019-01-10T23:55:40.365Z,82.07
2019-01-10T23:58:18.701Z,91.73
